sensor_id;sensor_type;location;lat;lon;timestamp;temperature;humidity
19206;DHT22;59358;52.134;5.596;2023-07-13T00:01:46;17.20;99.90
19206;DHT22;59358;52.134;5.596;2023-07-13T00:04:15;17.10;99.90
19206;DHT22;59358;52.134;5.596;2023-07-13T00:06:43;17.00;99.90
19206;DHT22;59358;52.134;5.596;2023-07-13T00:09:11;17.00;99.90
19206;DHT22;59358;52.134;5.596;2023-07-13T00:11:40;16.90;99.90
19206;DHT22;59358;52.134;5.596;2023-07-13T00:14:08;16.80;99.90
19206;DHT22;59358;52.134;5.596;2023-07-13T00:16:37;16.70;99.90
19206;DHT22;59358;52.134;5.596;2023-07-13T00:19:06;16.70;99.90
19206;DHT22;59358;52.134;5.596;2023-07-13T00:21:33;16.60;99.90
19206;DHT22;59358;52.134;5.596;2023-07-13T00:24:00;16.50;99.90
19206;DHT22;59358;52.134;5.596;2023-07-13T00:26:28;16.50;99.90
19206;DHT22;59358;52.134;5.596;2023-07-13T00:28:56;16.40;99.90
19206;DHT22;59358;52.134;5.596;2023-07-13T00:31:23;16.40;99.90
19206;DHT22;59358;52.134;5.596;2023-07-13T00:33:51;16.30;99.90
19206;DHT22;59358;52.134;5.596;2023-07-13T00:36:19;16.30;99.90
19206;DHT22;59358;52.134;5.596;2023-07-13T00:38:46;16.30;99.90
19206;DHT22;59358;52.134;5.596;2023-07-13T00:41:14;16.20;99.90
19206;DHT22;59358;52.134;5.596;2023-07-13T00:43:41;16.20;99.90
19206;DHT22;59358;52.134;5.596;2023-07-13T00:46:16;16.20;99.90
19206;DHT22;59358;52.134;5.596;2023-07-13T00:48:45;16.20;99.90
19206;DHT22;59358;52.134;5.596;2023-07-13T00:51:14;16.20;99.90
19206;DHT22;59358;52.134;5.596;2023-07-13T00:53:42;16.10;99.90
19206;DHT22;59358;52.134;5.596;2023-07-13T00:56:10;16.00;99.90
19206;DHT22;59358;52.134;5.596;2023-07-13T00:58:37;16.00;99.90
19206;DHT22;59358;52.134;5.596;2023-07-13T01:01:04;16.00;99.90
19206;DHT22;59358;52.134;5.596;2023-07-13T01:03:34;16.00;99.90
19206;DHT22;59358;52.134;5.596;2023-07-13T01:06:01;15.90;99.90
19206;DHT22;59358;52.134;5.596;2023-07-13T01:08:29;15.90;99.90
19206;DHT22;59358;52.134;5.596;2023-07-13T01:10:57;15.90;99.90
19206;DHT22;59358;52.134;5.596;2023-07-13T01:13:25;15.80;99.90
19206;DHT22;59358;52.134;5.596;2023-07-13T01:15:53;15.80;99.90
19206;DHT22;59358;52.134;5.596;2023-07-13T01:18:25;15.80;99.90
19206;DHT22;59358;52.134;5.596;2023-07-13T01:20:55;15.70;99.90
19206;DHT22;59358;52.134;5.596;2023-07-13T01:23:23;15.70;99.90
19206;DHT22;59358;52.134;5.596;2023-07-13T01:25:51;15.70;99.90
19206;DHT22;59358;52.134;5.596;2023-07-13T01:28:18;15.70;99.90
19206;DHT22;59358;52.134;5.596;2023-07-13T01:30:46;15.60;99.90
19206;DHT22;59358;52.134;5.596;2023-07-13T01:33:15;15.60;99.90
19206;DHT22;59358;52.134;5.596;2023-07-13T01:35:43;15.60;99.90
19206;DHT22;59358;52.134;5.596;2023-07-13T01:38:15;15.60;99.90
19206;DHT22;59358;52.134;5.596;2023-07-13T01:40:43;15.60;99.90
19206;DHT22;59358;52.134;5.596;2023-07-13T01:43:10;15.60;99.90
19206;DHT22;59358;52.134;5.596;2023-07-13T01:45:38;15.50;99.90
19206;DHT22;59358;52.134;5.596;2023-07-13T01:48:05;15.50;99.90
19206;DHT22;59358;52.134;5.596;2023-07-13T01:50:33;15.50;99.90
19206;DHT22;59358;52.134;5.596;2023-07-13T01:53:00;15.40;99.90
19206;DHT22;59358;52.134;5.596;2023-07-13T01:55:30;15.40;99.90
19206;DHT22;59358;52.134;5.596;2023-07-13T01:57:57;15.40;99.90
19206;DHT22;59358;52.134;5.596;2023-07-13T02:00:24;15.40;99.90
19206;DHT22;59358;52.134;5.596;2023-07-13T02:02:51;15.40;99.90
19206;DHT22;59358;52.134;5.596;2023-07-13T02:05:19;15.30;99.90
19206;DHT22;59358;52.134;5.596;2023-07-13T02:07:46;15.30;99.90
19206;DHT22;59358;52.134;5.596;2023-07-13T02:10:13;15.30;99.90
19206;DHT22;59358;52.134;5.596;2023-07-13T02:12:41;15.30;99.90
19206;DHT22;59358;52.134;5.596;2023-07-13T02:15:09;15.30;99.90
19206;DHT22;59358;52.134;5.596;2023-07-13T02:17:37;15.30;99.90
19206;DHT22;59358;52.134;5.596;2023-07-13T02:20:05;15.20;99.90
19206;DHT22;59358;52.134;5.596;2023-07-13T02:22:33;15.20;99.90
19206;DHT22;59358;52.134;5.596;2023-07-13T02:25:00;15.20;99.90
19206;DHT22;59358;52.134;5.596;2023-07-13T02:27:27;15.20;99.90
19206;DHT22;59358;52.134;5.596;2023-07-13T02:29:56;15.20;99.90
19206;DHT22;59358;52.134;5.596;2023-07-13T02:32:23;15.20;99.90
19206;DHT22;59358;52.134;5.596;2023-07-13T02:34:51;15.20;99.90
19206;DHT22;59358;52.134;5.596;2023-07-13T02:37:19;15.20;99.90
19206;DHT22;59358;52.134;5.596;2023-07-13T02:39:47;15.10;99.90
19206;DHT22;59358;52.134;5.596;2023-07-13T02:42:14;15.10;99.90
19206;DHT22;59358;52.134;5.596;2023-07-13T02:44:41;15.10;99.90
19206;DHT22;59358;52.134;5.596;2023-07-13T02:47:09;15.10;99.90
19206;DHT22;59358;52.134;5.596;2023-07-13T02:49:36;15.10;99.90
19206;DHT22;59358;52.134;5.596;2023-07-13T02:52:04;15.10;99.90
19206;DHT22;59358;52.134;5.596;2023-07-13T02:54:31;15.10;99.90
19206;DHT22;59358;52.134;5.596;2023-07-13T02:56:58;15.00;99.90
19206;DHT22;59358;52.134;5.596;2023-07-13T02:59:25;15.00;99.90
19206;DHT22;59358;52.134;5.596;2023-07-13T03:01:52;15.00;99.90
19206;DHT22;59358;52.134;5.596;2023-07-13T03:04:20;15.00;99.90
19206;DHT22;59358;52.134;5.596;2023-07-13T03:06:47;15.00;99.90
19206;DHT22;59358;52.134;5.596;2023-07-13T03:09:14;15.00;99.90
19206;DHT22;59358;52.134;5.596;2023-07-13T03:11:41;15.00;99.90
19206;DHT22;59358;52.134;5.596;2023-07-13T03:14:09;15.00;99.90
19206;DHT22;59358;52.134;5.596;2023-07-13T03:16:36;15.00;99.90
19206;DHT22;59358;52.134;5.596;2023-07-13T03:19:03;15.00;99.90
19206;DHT22;59358;52.134;5.596;2023-07-13T03:21:31;15.00;99.90
19206;DHT22;59358;52.134;5.596;2023-07-13T03:23:58;15.00;99.90
19206;DHT22;59358;52.134;5.596;2023-07-13T03:26:25;15.00;99.90
19206;DHT22;59358;52.134;5.596;2023-07-13T03:28:52;15.00;99.90
19206;DHT22;59358;52.134;5.596;2023-07-13T03:31:21;15.00;99.90
19206;DHT22;59358;52.134;5.596;2023-07-13T03:33:48;15.00;99.90
19206;DHT22;59358;52.134;5.596;2023-07-13T03:36:18;15.00;99.90
19206;DHT22;59358;52.134;5.596;2023-07-13T03:38:48;15.00;99.90
19206;DHT22;59358;52.134;5.596;2023-07-13T03:41:15;15.00;99.90
19206;DHT22;59358;52.134;5.596;2023-07-13T03:43:42;15.00;99.90
19206;DHT22;59358;52.134;5.596;2023-07-13T03:46:09;15.00;99.90
19206;DHT22;59358;52.134;5.596;2023-07-13T03:48:36;14.90;99.90
19206;DHT22;59358;52.134;5.596;2023-07-13T03:51:05;14.90;99.90
19206;DHT22;59358;52.134;5.596;2023-07-13T03:53:32;14.90;99.90
19206;DHT22;59358;52.134;5.596;2023-07-13T03:56:01;14.90;99.90
19206;DHT22;59358;52.134;5.596;2023-07-13T03:58:33;15.00;99.90
19206;DHT22;59358;52.134;5.596;2023-07-13T04:01:01;15.00;99.90
19206;DHT22;59358;52.134;5.596;2023-07-13T04:03:29;15.00;99.90
19206;DHT22;59358;52.134;5.596;2023-07-13T04:05:58;15.00;99.90
19206;DHT22;59358;52.134;5.596;2023-07-13T04:08:26;15.00;99.90
19206;DHT22;59358;52.134;5.596;2023-07-13T04:10:54;15.00;99.90
19206;DHT22;59358;52.134;5.596;2023-07-13T04:13:23;15.00;99.90
19206;DHT22;59358;52.134;5.596;2023-07-13T04:15:50;15.10;99.90
19206;DHT22;59358;52.134;5.596;2023-07-13T04:18:18;15.20;99.90
19206;DHT22;59358;52.134;5.596;2023-07-13T04:20:46;15.40;99.90
19206;DHT22;59358;52.134;5.596;2023-07-13T04:23:13;15.30;99.90
19206;DHT22;59358;52.134;5.596;2023-07-13T04:25:44;15.20;99.90
19206;DHT22;59358;52.134;5.596;2023-07-13T04:28:11;15.20;99.90
19206;DHT22;59358;52.134;5.596;2023-07-13T04:30:39;15.20;99.90
19206;DHT22;59358;52.134;5.596;2023-07-13T04:33:06;15.10;99.90
19206;DHT22;59358;52.134;5.596;2023-07-13T04:35:34;15.10;99.90
19206;DHT22;59358;52.134;5.596;2023-07-13T04:38:01;15.10;99.90
19206;DHT22;59358;52.134;5.596;2023-07-13T04:40:29;15.10;99.90
19206;DHT22;59358;52.134;5.596;2023-07-13T04:42:55;15.10;99.90
19206;DHT22;59358;52.134;5.596;2023-07-13T04:45:23;15.20;99.90
19206;DHT22;59358;52.134;5.596;2023-07-13T04:47:52;15.30;99.90
19206;DHT22;59358;52.134;5.596;2023-07-13T04:50:19;15.30;99.90
19206;DHT22;59358;52.134;5.596;2023-07-13T04:52:49;15.30;99.90
19206;DHT22;59358;52.134;5.596;2023-07-13T04:55:16;15.40;99.90
19206;DHT22;59358;52.134;5.596;2023-07-13T04:57:43;15.40;99.90
19206;DHT22;59358;52.134;5.596;2023-07-13T05:00:11;15.50;99.90
19206;DHT22;59358;52.134;5.596;2023-07-13T05:02:39;15.50;99.90
19206;DHT22;59358;52.134;5.596;2023-07-13T05:05:08;15.50;99.90
19206;DHT22;59358;52.134;5.596;2023-07-13T05:07:35;15.60;99.90
19206;DHT22;59358;52.134;5.596;2023-07-13T05:10:03;15.80;99.90
19206;DHT22;59358;52.134;5.596;2023-07-13T05:12:30;15.80;99.90
19206;DHT22;59358;52.134;5.596;2023-07-13T05:14:58;15.90;99.90
19206;DHT22;59358;52.134;5.596;2023-07-13T05:17:25;16.00;99.90
19206;DHT22;59358;52.134;5.596;2023-07-13T05:19:52;16.10;99.90
19206;DHT22;59358;52.134;5.596;2023-07-13T05:22:20;16.10;99.90
19206;DHT22;59358;52.134;5.596;2023-07-13T05:24:47;16.20;99.90
19206;DHT22;59358;52.134;5.596;2023-07-13T05:27:14;16.30;99.90
19206;DHT22;59358;52.134;5.596;2023-07-13T05:29:41;16.40;99.90
19206;DHT22;59358;52.134;5.596;2023-07-13T05:32:08;16.40;99.90
19206;DHT22;59358;52.134;5.596;2023-07-13T05:34:35;16.50;99.90
19206;DHT22;59358;52.134;5.596;2023-07-13T05:37:02;16.40;99.90
19206;DHT22;59358;52.134;5.596;2023-07-13T05:39:31;16.60;99.90
19206;DHT22;59358;52.134;5.596;2023-07-13T05:41:57;16.70;99.90
19206;DHT22;59358;52.134;5.596;2023-07-13T05:44:24;16.80;99.90
19206;DHT22;59358;52.134;5.596;2023-07-13T05:46:53;16.90;99.90
19206;DHT22;59358;52.134;5.596;2023-07-13T05:49:20;16.90;99.90
19206;DHT22;59358;52.134;5.596;2023-07-13T05:51:47;17.00;99.90
19206;DHT22;59358;52.134;5.596;2023-07-13T05:54:14;17.00;99.90
19206;DHT22;59358;52.134;5.596;2023-07-13T05:56:43;17.10;99.90
19206;DHT22;59358;52.134;5.596;2023-07-13T05:59:10;17.10;99.90
19206;DHT22;59358;52.134;5.596;2023-07-13T06:01:37;17.00;99.90
19206;DHT22;59358;52.134;5.596;2023-07-13T06:04:04;17.00;99.90
19206;DHT22;59358;52.134;5.596;2023-07-13T06:06:32;17.00;99.90
19206;DHT22;59358;52.134;5.596;2023-07-13T06:08:59;17.10;99.90
19206;DHT22;59358;52.134;5.596;2023-07-13T06:11:27;17.10;99.90
19206;DHT22;59358;52.134;5.596;2023-07-13T06:13:57;17.00;99.90
19206;DHT22;59358;52.134;5.596;2023-07-13T06:16:24;17.00;99.90
19206;DHT22;59358;52.134;5.596;2023-07-13T06:18:51;17.10;99.90
19206;DHT22;59358;52.134;5.596;2023-07-13T06:21:20;17.40;99.90
19206;DHT22;59358;52.134;5.596;2023-07-13T06:23:48;17.40;99.90
19206;DHT22;59358;52.134;5.596;2023-07-13T06:26:16;17.50;99.90
19206;DHT22;59358;52.134;5.596;2023-07-13T06:28:44;17.60;99.90
19206;DHT22;59358;52.134;5.596;2023-07-13T06:31:13;17.70;99.90
19206;DHT22;59358;52.134;5.596;2023-07-13T06:33:40;17.60;99.90
19206;DHT22;59358;52.134;5.596;2023-07-13T06:36:08;17.70;99.90
19206;DHT22;59358;52.134;5.596;2023-07-13T06:38:36;17.60;99.90
19206;DHT22;59358;52.134;5.596;2023-07-13T06:41:04;17.50;99.90
19206;DHT22;59358;52.134;5.596;2023-07-13T06:43:32;17.40;99.90
19206;DHT22;59358;52.134;5.596;2023-07-13T06:45:59;17.40;99.90
19206;DHT22;59358;52.134;5.596;2023-07-13T06:48:28;17.30;99.90
19206;DHT22;59358;52.134;5.596;2023-07-13T06:50:55;17.40;99.90
19206;DHT22;59358;52.134;5.596;2023-07-13T06:53:23;17.40;99.90
19206;DHT22;59358;52.134;5.596;2023-07-13T06:55:50;17.60;99.90
19206;DHT22;59358;52.134;5.596;2023-07-13T06:58:18;17.70;99.90
19206;DHT22;59358;52.134;5.596;2023-07-13T07:00:46;17.70;99.90
19206;DHT22;59358;52.134;5.596;2023-07-13T07:03:13;18.00;99.90
19206;DHT22;59358;52.134;5.596;2023-07-13T07:05:42;18.20;99.90
19206;DHT22;59358;52.134;5.596;2023-07-13T07:08:09;18.30;99.90
19206;DHT22;59358;52.134;5.596;2023-07-13T07:10:36;18.40;99.90
19206;DHT22;59358;52.134;5.596;2023-07-13T07:13:03;18.40;99.90
19206;DHT22;59358;52.134;5.596;2023-07-13T07:15:30;18.50;99.90
19206;DHT22;59358;52.134;5.596;2023-07-13T07:17:57;18.50;99.90
19206;DHT22;59358;52.134;5.596;2023-07-13T07:20:24;18.50;99.90
19206;DHT22;59358;52.134;5.596;2023-07-13T07:22:53;18.60;99.90
19206;DHT22;59358;52.134;5.596;2023-07-13T07:25:20;18.60;99.90
19206;DHT22;59358;52.134;5.596;2023-07-13T07:27:47;18.50;99.90
19206;DHT22;59358;52.134;5.596;2023-07-13T07:30:14;18.50;99.90
19206;DHT22;59358;52.134;5.596;2023-07-13T07:32:41;18.60;99.90
19206;DHT22;59358;52.134;5.596;2023-07-13T07:35:08;18.70;99.90
19206;DHT22;59358;52.134;5.596;2023-07-13T07:37:36;18.70;99.90
19206;DHT22;59358;52.134;5.596;2023-07-13T07:40:05;18.70;99.90
19206;DHT22;59358;52.134;5.596;2023-07-13T07:42:33;18.90;99.90
19206;DHT22;59358;52.134;5.596;2023-07-13T07:45:00;19.00;99.90
19206;DHT22;59358;52.134;5.596;2023-07-13T07:47:27;18.80;99.90
19206;DHT22;59358;52.134;5.596;2023-07-13T07:49:55;18.60;99.90
19206;DHT22;59358;52.134;5.596;2023-07-13T07:52:22;18.50;99.90
19206;DHT22;59358;52.134;5.596;2023-07-13T07:54:49;18.50;99.90
19206;DHT22;59358;52.134;5.596;2023-07-13T07:57:18;18.60;99.90
19206;DHT22;59358;52.134;5.596;2023-07-13T07:59:45;18.80;99.90
19206;DHT22;59358;52.134;5.596;2023-07-13T08:02:14;18.90;99.90
19206;DHT22;59358;52.134;5.596;2023-07-13T08:04:41;19.00;99.90
19206;DHT22;59358;52.134;5.596;2023-07-13T08:07:08;19.30;99.90
19206;DHT22;59358;52.134;5.596;2023-07-13T08:09:35;19.30;99.90
19206;DHT22;59358;52.134;5.596;2023-07-13T08:12:02;19.40;99.90
19206;DHT22;59358;52.134;5.596;2023-07-13T08:14:30;19.70;99.90
19206;DHT22;59358;52.134;5.596;2023-07-13T08:16:57;19.80;99.90
19206;DHT22;59358;52.134;5.596;2023-07-13T08:19:24;19.90;99.90
19206;DHT22;59358;52.134;5.596;2023-07-13T08:21:51;19.60;99.90
19206;DHT22;59358;52.134;5.596;2023-07-13T08:24:21;19.60;99.90
19206;DHT22;59358;52.134;5.596;2023-07-13T08:26:48;19.70;99.90
19206;DHT22;59358;52.134;5.596;2023-07-13T08:29:15;19.80;99.90
19206;DHT22;59358;52.134;5.596;2023-07-13T08:31:44;19.90;99.90
19206;DHT22;59358;52.134;5.596;2023-07-13T08:34:11;20.20;99.90
19206;DHT22;59358;52.134;5.596;2023-07-13T08:36:40;20.30;99.90
19206;DHT22;59358;52.134;5.596;2023-07-13T08:39:07;20.40;99.90
19206;DHT22;59358;52.134;5.596;2023-07-13T08:41:35;20.60;99.90
19206;DHT22;59358;52.134;5.596;2023-07-13T08:44:07;20.40;99.90
19206;DHT22;59358;52.134;5.596;2023-07-13T08:46:40;20.50;99.90
19206;DHT22;59358;52.134;5.596;2023-07-13T08:49:13;20.30;99.90
19206;DHT22;59358;52.134;5.596;2023-07-13T08:51:44;20.30;99.90
19206;DHT22;59358;52.134;5.596;2023-07-13T08:54:19;20.40;99.90
19206;DHT22;59358;52.134;5.596;2023-07-13T08:56:49;20.40;99.90
19206;DHT22;59358;52.134;5.596;2023-07-13T08:59:20;20.40;99.90
19206;DHT22;59358;52.134;5.596;2023-07-13T09:01:59;20.70;99.90
19206;DHT22;59358;52.134;5.596;2023-07-13T09:04:33;21.20;99.90
19206;DHT22;59358;52.134;5.596;2023-07-13T09:07:13;21.10;99.90
19206;DHT22;59358;52.134;5.596;2023-07-13T09:09:50;20.70;99.90
19206;DHT22;59358;52.134;5.596;2023-07-13T09:12:25;20.70;99.90
19206;DHT22;59358;52.134;5.596;2023-07-13T09:14:56;20.80;99.90
19206;DHT22;59358;52.134;5.596;2023-07-13T09:17:31;20.70;99.90
19206;DHT22;59358;52.134;5.596;2023-07-13T09:20:04;20.60;99.90
19206;DHT22;59358;52.134;5.596;2023-07-13T09:22:34;20.20;99.90
19206;DHT22;59358;52.134;5.596;2023-07-13T09:25:11;20.00;99.90
19206;DHT22;59358;52.134;5.596;2023-07-13T09:27:44;19.90;99.90
19206;DHT22;59358;52.134;5.596;2023-07-13T09:30:28;19.70;99.90
19206;DHT22;59358;52.134;5.596;2023-07-13T09:32:57;19.50;99.90
19206;DHT22;59358;52.134;5.596;2023-07-13T09:35:29;19.50;99.90
19206;DHT22;59358;52.134;5.596;2023-07-13T09:38:06;19.70;99.90
19206;DHT22;59358;52.134;5.596;2023-07-13T09:40:56;20.10;99.90
19206;DHT22;59358;52.134;5.596;2023-07-13T09:43:25;20.40;99.90
19206;DHT22;59358;52.134;5.596;2023-07-13T09:45:55;20.90;99.90
19206;DHT22;59358;52.134;5.596;2023-07-13T09:48:22;21.00;99.90
19206;DHT22;59358;52.134;5.596;2023-07-13T09:50:54;20.60;99.90
19206;DHT22;59358;52.134;5.596;2023-07-13T09:53:21;20.70;99.90
19206;DHT22;59358;52.134;5.596;2023-07-13T09:55:49;20.90;99.90
19206;DHT22;59358;52.134;5.596;2023-07-13T09:58:18;21.20;99.90
19206;DHT22;59358;52.134;5.596;2023-07-13T10:00:56;21.30;99.90
19206;DHT22;59358;52.134;5.596;2023-07-13T10:03:25;21.20;99.90
19206;DHT22;59358;52.134;5.596;2023-07-13T10:05:54;20.80;99.90
19206;DHT22;59358;52.134;5.596;2023-07-13T10:08:29;20.40;99.90
19206;DHT22;59358;52.134;5.596;2023-07-13T10:10:59;20.10;99.90
19206;DHT22;59358;52.134;5.596;2023-07-13T10:13:30;19.80;99.90
19206;DHT22;59358;52.134;5.596;2023-07-13T10:15:59;19.50;99.90
19206;DHT22;59358;52.134;5.596;2023-07-13T10:18:28;18.60;99.90
19206;DHT22;59358;52.134;5.596;2023-07-13T10:21:10;17.70;99.90
19206;DHT22;59358;52.134;5.596;2023-07-13T10:23:37;17.00;99.90
19206;DHT22;59358;52.134;5.596;2023-07-13T10:26:10;17.00;99.90
19206;DHT22;59358;52.134;5.596;2023-07-13T10:28:41;17.20;99.90
19206;DHT22;59358;52.134;5.596;2023-07-13T10:31:12;17.20;99.90
19206;DHT22;59358;52.134;5.596;2023-07-13T10:33:40;17.30;99.90
19206;DHT22;59358;52.134;5.596;2023-07-13T10:36:14;17.80;99.90
19206;DHT22;59358;52.134;5.596;2023-07-13T10:38:43;18.20;99.90
19206;DHT22;59358;52.134;5.596;2023-07-13T10:41:15;18.80;99.90
19206;DHT22;59358;52.134;5.596;2023-07-13T10:43:46;19.10;99.90
19206;DHT22;59358;52.134;5.596;2023-07-13T10:46:17;19.10;99.90
19206;DHT22;59358;52.134;5.596;2023-07-13T10:48:48;19.30;99.90
19206;DHT22;59358;52.134;5.596;2023-07-13T10:51:19;19.70;99.90
19206;DHT22;59358;52.134;5.596;2023-07-13T10:53:48;20.20;99.90
19206;DHT22;59358;52.134;5.596;2023-07-13T10:56:34;20.70;99.90
19206;DHT22;59358;52.134;5.596;2023-07-13T10:59:10;20.60;99.90
19206;DHT22;59358;52.134;5.596;2023-07-13T11:01:46;20.00;99.90
19206;DHT22;59358;52.134;5.596;2023-07-13T11:04:15;19.80;99.90
19206;DHT22;59358;52.134;5.596;2023-07-13T11:06:47;19.80;99.90
19206;DHT22;59358;52.134;5.596;2023-07-13T11:09:30;19.70;99.90
19206;DHT22;59358;52.134;5.596;2023-07-13T11:11:59;19.40;99.90
19206;DHT22;59358;52.134;5.596;2023-07-13T11:14:31;19.70;99.90
19206;DHT22;59358;52.134;5.596;2023-07-13T11:17:24;20.10;99.90
19206;DHT22;59358;52.134;5.596;2023-07-13T11:20:10;20.60;99.90
19206;DHT22;59358;52.134;5.596;2023-07-13T11:22:48;20.80;99.90
19206;DHT22;59358;52.134;5.596;2023-07-13T11:25:27;20.70;99.90
19206;DHT22;59358;52.134;5.596;2023-07-13T11:28:16;20.80;99.90
19206;DHT22;59358;52.134;5.596;2023-07-13T11:30:47;20.90;99.90
19206;DHT22;59358;52.134;5.596;2023-07-13T11:33:18;21.20;99.90
19206;DHT22;59358;52.134;5.596;2023-07-13T11:35:52;21.40;99.90
19206;DHT22;59358;52.134;5.596;2023-07-13T11:38:28;21.50;99.90
19206;DHT22;59358;52.134;5.596;2023-07-13T11:41:00;21.70;99.90
19206;DHT22;59358;52.134;5.596;2023-07-13T11:43:28;21.40;99.90
19206;DHT22;59358;52.134;5.596;2023-07-13T11:45:56;21.70;99.90
19206;DHT22;59358;52.134;5.596;2023-07-13T11:48:28;22.00;99.90
19206;DHT22;59358;52.134;5.596;2023-07-13T11:50:59;22.60;99.90
19206;DHT22;59358;52.134;5.596;2023-07-13T11:53:31;22.50;99.90
19206;DHT22;59358;52.134;5.596;2023-07-13T11:56:01;22.00;99.90
19206;DHT22;59358;52.134;5.596;2023-07-13T11:58:28;21.70;99.90
19206;DHT22;59358;52.134;5.596;2023-07-13T12:00:58;20.70;99.90
19206;DHT22;59358;52.134;5.596;2023-07-13T12:03:28;19.90;99.90
19206;DHT22;59358;52.134;5.596;2023-07-13T12:05:57;19.20;99.90
19206;DHT22;59358;52.134;5.596;2023-07-13T12:08:24;19.10;99.90
19206;DHT22;59358;52.134;5.596;2023-07-13T12:11:00;19.00;99.90
19206;DHT22;59358;52.134;5.596;2023-07-13T12:13:27;19.00;99.90
19206;DHT22;59358;52.134;5.596;2023-07-13T12:15:56;18.90;99.90
19206;DHT22;59358;52.134;5.596;2023-07-13T12:18:29;19.00;99.90
19206;DHT22;59358;52.134;5.596;2023-07-13T12:20:58;19.00;99.90
19206;DHT22;59358;52.134;5.596;2023-07-13T12:23:29;19.20;99.90
19206;DHT22;59358;52.134;5.596;2023-07-13T12:26:00;19.30;99.90
19206;DHT22;59358;52.134;5.596;2023-07-13T12:28:33;19.40;99.90
19206;DHT22;59358;52.134;5.596;2023-07-13T12:31:04;19.70;99.90
19206;DHT22;59358;52.134;5.596;2023-07-13T12:33:32;19.90;99.90
19206;DHT22;59358;52.134;5.596;2023-07-13T12:36:01;20.10;99.90
19206;DHT22;59358;52.134;5.596;2023-07-13T12:38:30;20.50;99.90
19206;DHT22;59358;52.134;5.596;2023-07-13T12:41:01;20.80;99.90
19206;DHT22;59358;52.134;5.596;2023-07-13T12:43:33;21.10;99.90
19206;DHT22;59358;52.134;5.596;2023-07-13T12:46:04;20.90;99.90
19206;DHT22;59358;52.134;5.596;2023-07-13T12:48:38;20.50;99.90
19206;DHT22;59358;52.134;5.596;2023-07-13T12:51:10;20.30;99.90
19206;DHT22;59358;52.134;5.596;2023-07-13T12:53:41;20.10;99.90
19206;DHT22;59358;52.134;5.596;2023-07-13T12:56:17;20.30;99.90
19206;DHT22;59358;52.134;5.596;2023-07-13T12:58:47;20.80;99.90
19206;DHT22;59358;52.134;5.596;2023-07-13T13:01:21;21.20;99.90
19206;DHT22;59358;52.134;5.596;2023-07-13T13:03:49;21.50;99.90
19206;DHT22;59358;52.134;5.596;2023-07-13T13:06:24;22.00;99.90
19206;DHT22;59358;52.134;5.596;2023-07-13T13:08:52;21.90;99.90
19206;DHT22;59358;52.134;5.596;2023-07-13T13:11:23;21.80;99.90
19206;DHT22;59358;52.134;5.596;2023-07-13T13:13:51;21.90;99.90
19206;DHT22;59358;52.134;5.596;2023-07-13T13:16:21;22.10;99.90
19206;DHT22;59358;52.134;5.596;2023-07-13T13:18:49;22.10;99.90
19206;DHT22;59358;52.134;5.596;2023-07-13T13:21:16;22.20;99.90
19206;DHT22;59358;52.134;5.596;2023-07-13T13:23:44;22.40;99.90
19206;DHT22;59358;52.134;5.596;2023-07-13T13:26:13;22.70;99.90
19206;DHT22;59358;52.134;5.596;2023-07-13T13:28:43;23.10;99.90
19206;DHT22;59358;52.134;5.596;2023-07-13T13:31:11;23.10;99.90
19206;DHT22;59358;52.134;5.596;2023-07-13T13:33:39;23.20;99.90
19206;DHT22;59358;52.134;5.596;2023-07-13T13:36:14;23.10;99.90
19206;DHT22;59358;52.134;5.596;2023-07-13T13:38:43;22.40;99.90
19206;DHT22;59358;52.134;5.596;2023-07-13T13:41:11;22.50;99.90
19206;DHT22;59358;52.134;5.596;2023-07-13T13:43:39;22.90;99.90
19206;DHT22;59358;52.134;5.596;2023-07-13T13:46:17;23.30;99.90
19206;DHT22;59358;52.134;5.596;2023-07-13T13:48:45;23.20;99.90
19206;DHT22;59358;52.134;5.596;2023-07-13T13:51:15;23.10;99.90
19206;DHT22;59358;52.134;5.596;2023-07-13T13:53:43;23.10;99.90
19206;DHT22;59358;52.134;5.596;2023-07-13T13:56:10;22.80;99.90
19206;DHT22;59358;52.134;5.596;2023-07-13T13:58:37;22.40;99.90
19206;DHT22;59358;52.134;5.596;2023-07-13T14:01:04;22.50;99.90
19206;DHT22;59358;52.134;5.596;2023-07-13T14:03:35;22.70;99.90
19206;DHT22;59358;52.134;5.596;2023-07-13T14:06:03;22.50;99.90
19206;DHT22;59358;52.134;5.596;2023-07-13T14:08:30;22.70;99.90
19206;DHT22;59358;52.134;5.596;2023-07-13T14:10:58;23.50;99.90
19206;DHT22;59358;52.134;5.596;2023-07-13T14:13:29;23.50;99.90
19206;DHT22;59358;52.134;5.596;2023-07-13T14:15:58;23.40;99.90
19206;DHT22;59358;52.134;5.596;2023-07-13T14:18:26;23.80;99.90
19206;DHT22;59358;52.134;5.596;2023-07-13T14:20:54;24.10;99.90
19206;DHT22;59358;52.134;5.596;2023-07-13T14:23:21;24.50;99.90
19206;DHT22;59358;52.134;5.596;2023-07-13T14:25:48;24.90;99.90
19206;DHT22;59358;52.134;5.596;2023-07-13T14:28:23;25.50;99.90
19206;DHT22;59358;52.134;5.596;2023-07-13T14:30:50;24.90;99.90
19206;DHT22;59358;52.134;5.596;2023-07-13T14:33:18;24.60;99.90
19206;DHT22;59358;52.134;5.596;2023-07-13T14:35:45;24.00;99.90
19206;DHT22;59358;52.134;5.596;2023-07-13T14:38:16;23.40;99.90
19206;DHT22;59358;52.134;5.596;2023-07-13T14:40:44;23.40;99.90
19206;DHT22;59358;52.134;5.596;2023-07-13T14:43:12;23.40;99.90
19206;DHT22;59358;52.134;5.596;2023-07-13T14:45:41;23.30;99.90
19206;DHT22;59358;52.134;5.596;2023-07-13T14:48:16;23.50;99.90
19206;DHT22;59358;52.134;5.596;2023-07-13T14:50:44;23.80;99.90
19206;DHT22;59358;52.134;5.596;2023-07-13T14:53:14;24.10;99.90
19206;DHT22;59358;52.134;5.596;2023-07-13T14:55:41;24.40;99.90
19206;DHT22;59358;52.134;5.596;2023-07-13T14:58:09;25.20;99.90
19206;DHT22;59358;52.134;5.596;2023-07-13T15:00:36;25.80;99.90
19206;DHT22;59358;52.134;5.596;2023-07-13T15:03:04;25.80;99.90
19206;DHT22;59358;52.134;5.596;2023-07-13T15:05:32;26.70;99.40
19206;DHT22;59358;52.134;5.596;2023-07-13T15:08:02;27.20;99.10
19206;DHT22;59358;52.134;5.596;2023-07-13T15:10:32;26.90;98.60
19206;DHT22;59358;52.134;5.596;2023-07-13T15:13:13;26.80;98.50
19206;DHT22;59358;52.134;5.596;2023-07-13T15:15:51;27.60;97.50
19206;DHT22;59358;52.134;5.596;2023-07-13T15:18:20;28.20;96.90
19206;DHT22;59358;52.134;5.596;2023-07-13T15:20:49;28.20;96.20
19206;DHT22;59358;52.134;5.596;2023-07-13T15:23:17;28.70;96.30
19206;DHT22;59358;52.134;5.596;2023-07-13T15:25:46;29.80;94.50
19206;DHT22;59358;52.134;5.596;2023-07-13T15:28:13;29.00;93.70
19206;DHT22;59358;52.134;5.596;2023-07-13T15:30:42;29.20;94.50
19206;DHT22;59358;52.134;5.596;2023-07-13T15:33:13;29.70;94.50
19206;DHT22;59358;52.134;5.596;2023-07-13T15:35:42;29.60;93.60
19206;DHT22;59358;52.134;5.596;2023-07-13T15:38:14;28.80;94.40
19206;DHT22;59358;52.134;5.596;2023-07-13T15:40:42;27.40;95.50
19206;DHT22;59358;52.134;5.596;2023-07-13T15:43:12;26.90;95.80